Terminal Aerodrome Forecast
Issued by NWS Sioux Falls, SD

Home | Current Version | Previous Version | Graphics & Text | Print | Product List | Glossary On
Versions: 1 2 3 4 5 6 7 8 9 10 11 12 13
777
FTUS43 KFSD 231141
TAFFSD
TAF
KFSD 231141Z 2312/2412 18011KT P6SM BKN250
     FM231600 17015G23KT P6SM SCT060 BKN250
     FM232000 16016G24KT P6SM BKN045
     FM232300 15011KT P6SM SCT035 BKN150
     FM240200 13007KT P6SM BKN200
     FM240500 VRB03KT P6SM BKN090
     FM240800 33007KT P6SM SCT090=

USA.gov is the U.S. government's official web portal to all federal, state and local government web resources and services.